Time;durP1;ratioP1;P1;durP2;ratioP2;P2;SDS_P1;SDS_P2;PMS_P1;PMS_P2;Temp;Humidity;BMP_temperature;BMP_pressure;BME280_temperature;BME280_humidity;BME280_pressure;Samples;Min_cycle;Max_cycle;Signal;HPM_P1;HPM_P2
2022/01/09 00:02:06;;;;;;;3.03;0.70;;;;;;;;;;4990708;28;92100;-84
2022/01/09 00:04:32;;;;;;;1.05;1.00;;;;;;;;;;4997171;28;93113;-81
2022/01/09 00:06:59;;;;;;;0.80;0.80;;;;;;;;;;5010074;28;92053;-80
2022/01/09 00:09:27;;;;;;;1.33;1.00;;;;;;;;;;5010605;28;91464;-81
2022/01/09 00:11:54;;;;;;;2.47;0.90;;;;;;;;;;4990646;28;91973;-81
2022/01/09 00:14:20;;;;;;;0.95;0.60;;;;;;;;;;4986506;28;93100;-80
2022/01/09 00:16:46;;;;;;;2.58;0.60;;;;;;;;;;4989517;28;92030;-80
2022/01/09 00:19:15;;;;;;;1.85;0.80;;;;;;;;;;5003030;28;92929;-79
2022/01/09 00:21:41;;;;;;;0.88;0.88;;;;;;;;;;4992584;28;92932;-79
2022/01/09 00:24:08;;;;;;;1.50;0.70;;;;;;;;;;5003397;28;92020;-79
2022/01/09 00:26:36;;;;;;;1.08;0.93;;;;;;;;;;4986584;28;92161;-79
2022/01/09 00:29:03;;;;;;;4.22;0.80;;;;;;;;;;4988200;28;91968;-79
2022/01/09 00:31:29;;;;;;;0.70;0.70;;;;;;;;;;5007094;28;91708;-79
2022/01/09 00:33:55;;;;;;;0.85;0.85;;;;;;;;;;5004002;28;93954;-79
2022/01/09 00:36:22;;;;;;;0.70;0.70;;;;;;;;;;5005134;28;91991;-79
2022/01/09 00:38:48;;;;;;;1.02;0.93;;;;;;;;;;5004753;28;93079;-80
2022/01/09 00:41:15;;;;;;;0.98;0.77;;;;;;;;;;5006402;28;92099;-79
2022/01/09 00:43:42;;;;;;;0.93;0.73;;;;;;;;;;5007828;28;91911;-79
2022/01/09 00:46:09;;;;;;;0.50;0.50;;;;;;;;;;4986111;28;91627;-79
2022/01/09 00:48:35;;;;;;;1.00;0.70;;;;;;;;;;4999883;28;91950;-79
2022/01/09 00:51:02;;;;;;;1.90;0.82;;;;;;;;;;4976371;28;92045;-79
2022/01/09 00:53:28;;;;;;;2.08;1.00;;;;;;;;;;5004948;28;91894;-79
2022/01/09 00:55:55;;;;;;;1.25;0.93;;;;;;;;;;4984964;28;92098;-79
2022/01/09 00:58:21;;;;;;;1.73;0.73;;;;;;;;;;4996869;28;92953;-79
2022/01/09 01:00:47;;;;;;;1.98;0.98;;;;;;;;;;4990121;28;92118;-79
2022/01/09 01:03:14;;;;;;;4.28;1.13;;;;;;;;;;4993520;28;92004;-80
2022/01/09 01:05:41;;;;;;;3.17;1.30;;;;;;;;;;4999481;28;91319;-80
2022/01/09 01:08:07;;;;;;;2.20;1.50;;;;;;;;;;4995325;28;92160;-80
2022/01/09 01:10:34;;;;;;;0.93;0.85;;;;;;;;;;4989770;28;92750;-80
2022/01/09 01:13:00;;;;;;;2.58;1.25;;;;;;;;;;5001836;28;94636;-80
2022/01/09 01:15:27;;;;;;;2.13;1.20;;;;;;;;;;5005262;28;92016;-80
2022/01/09 01:17:53;;;;;;;1.75;1.17;;;;;;;;;;4992824;28;93190;-80
2022/01/09 01:20:22;;;;;;;4.13;1.30;;;;;;;;;;4991181;28;91970;-80
2022/01/09 01:22:50;;;;;;;4.57;1.48;;;;;;;;;;4985718;28;91985;-79
2022/01/09 01:25:20;;;;;;;3.90;1.38;;;;;;;;;;4997887;28;93188;-80
2022/01/09 01:27:47;;;;;;;7.15;1.63;;;;;;;;;;5004468;28;91908;-80
2022/01/09 01:30:13;;;;;;;4.57;1.50;;;;;;;;;;4994209;28;94360;-80
2022/01/09 01:32:41;;;;;;;4.55;1.83;;;;;;;;;;4985882;28;92021;-80
2022/01/09 01:35:08;;;;;;;7.28;2.20;;;;;;;;;;4995371;28;91752;-80
2022/01/09 01:37:41;;;;;;;3.63;1.80;;;;;;;;;;4999425;28;93953;-81
2022/01/09 01:40:11;;;;;;;7.75;1.80;;;;;;;;;;5003453;28;92211;-81
2022/01/09 01:42:37;;;;;;;7.10;1.63;;;;;;;;;;5006354;28;92059;-81
2022/01/09 01:45:04;;;;;;;8.50;2.35;;;;;;;;;;4997897;28;92119;-80
2022/01/09 01:47:31;;;;;;;11.02;1.90;;;;;;;;;;5005876;28;91647;-81
2022/01/09 01:49:58;;;;;;;8.07;2.47;;;;;;;;;;5004338;28;93424;-80
2022/01/09 01:52:30;;;;;;;6.80;2.03;;;;;;;;;;4997152;28;91908;-80
2022/01/09 01:54:57;;;;;;;9.45;2.67;;;;;;;;;;5012088;28;91967;-80
2022/01/09 01:57:23;;;;;;;7.55;2.50;;;;;;;;;;4997995;28;91939;-80
2022/01/09 01:59:50;;;;;;;6.80;2.20;;;;;;;;;;4998703;28;92015;-80
2022/01/09 02:02:16;;;;;;;11.80;2.22;;;;;;;;;;5009971;28;92287;-80
2022/01/09 02:04:43;;;;;;;7.43;2.35;;;;;;;;;;5011060;28;92978;-80
2022/01/09 02:07:10;;;;;;;12.65;3.22;;;;;;;;;;5010106;28;93534;-80
2022/01/09 02:09:37;;;;;;;8.75;2.20;;;;;;;;;;5007185;28;91818;-80
2022/01/09 02:12:06;;;;;;;7.18;2.92;;;;;;;;;;4991409;28;91699;-81
2022/01/09 02:14:36;;;;;;;9.90;2.75;;;;;;;;;;5011666;28;91873;-80
2022/01/09 02:17:04;;;;;;;8.60;3.05;;;;;;;;;;4996794;28;92329;-80
2022/01/09 02:19:30;;;;;;;9.60;2.40;;;;;;;;;;4994350;28;92077;-81
2022/01/09 02:21:59;;;;;;;11.73;2.80;;;;;;;;;;4996839;28;92363;-80
2022/01/09 02:24:25;;;;;;;6.57;2.83;;;;;;;;;;4992855;28;92435;-80
2022/01/09 02:26:52;;;;;;;11.55;3.03;;;;;;;;;;4993146;28;94854;-80
2022/01/09 02:29:18;;;;;;;8.85;2.92;;;;;;;;;;5005309;28;94391;-80
2022/01/09 02:31:45;;;;;;;14.07;3.15;;;;;;;;;;5010578;28;93299;-81
2022/01/09 02:34:11;;;;;;;8.02;2.72;;;;;;;;;;4990429;28;93459;-80
2022/01/09 02:36:38;;;;;;;11.05;3.00;;;;;;;;;;4994460;28;92598;-79
2022/01/09 02:39:04;;;;;;;9.68;2.65;;;;;;;;;;4993266;28;93227;-80
2022/01/09 02:41:30;;;;;;;10.90;3.70;;;;;;;;;;5000070;28;92959;-79
2022/01/09 02:43:57;;;;;;;7.35;2.97;;;;;;;;;;4986349;28;93890;-80
2022/01/09 02:46:42;;;;;;;9.52;2.60;;;;;;;;;;4984233;28;92247;-79
2022/01/09 02:49:09;;;;;;;8.50;2.58;;;;;;;;;;4984145;28;92879;-80
2022/01/09 02:51:36;;;;;;;11.43;3.25;;;;;;;;;;4978355;28;99082;-80
2022/01/09 02:55:05;;;;;;;12.52;2.67;;;;;;;;;;4990504;28;92342;-79
2022/01/09 02:56:49;;;;;;;11.32;3.00;;;;;;;;;;4985967;28;95840;-79
2022/01/09 02:59:15;;;;;;;15.07;4.00;;;;;;;;;;4995483;28;92512;-79
2022/01/09 03:01:42;;;;;;;9.90;2.70;;;;;;;;;;4982529;28;92244;-79
2022/01/09 03:04:08;;;;;;;8.25;2.72;;;;;;;;;;4984392;28;92501;-79
2022/01/09 03:06:35;;;;;;;13.77;3.00;;;;;;;;;;4996867;28;92187;-80
2022/01/09 03:09:05;;;;;;;11.73;2.60;;;;;;;;;;4993638;28;93699;-80
2022/01/09 03:11:32;;;;;;;9.43;2.90;;;;;;;;;;5005564;28;92124;-80
2022/01/09 03:13:58;;;;;;;14.00;3.05;;;;;;;;;;5004809;28;92616;-80
2022/01/09 03:16:25;;;;;;;14.82;4.00;;;;;;;;;;5006379;28;94763;-80
2022/01/09 03:18:51;;;;;;;10.65;2.97;;;;;;;;;;4987967;28;94688;-80
2022/01/09 03:21:18;;;;;;;11.85;3.10;;;;;;;;;;4990975;28;92921;-80
2022/01/09 03:23:44;;;;;;;12.32;3.17;;;;;;;;;;5006565;28;92374;-80
2022/01/09 03:26:11;;;;;;;11.55;3.45;;;;;;;;;;5004082;28;92465;-80
2022/01/09 03:28:37;;;;;;;9.25;2.50;;;;;;;;;;4999717;28;94246;-80
2022/01/09 03:31:03;;;;;;;11.88;3.22;;;;;;;;;;4994692;28;94324;-81
2022/01/09 03:33:30;;;;;;;7.70;2.78;;;;;;;;;;5004571;28;94021;-80
2022/01/09 03:35:56;;;;;;;13.95;3.33;;;;;;;;;;5006283;28;92398;-80
2022/01/09 03:38:23;;;;;;;12.05;3.83;;;;;;;;;;4991939;28;92200;-80
2022/01/09 03:40:49;;;;;;;10.80;3.45;;;;;;;;;;4988784;28;94676;-80
2022/01/09 03:43:17;;;;;;;11.27;3.85;;;;;;;;;;4994370;28;92375;-79
2022/01/09 03:45:44;;;;;;;8.90;2.90;;;;;;;;;;4985271;28;92940;-79
2022/01/09 03:48:10;;;;;;;9.95;3.95;;;;;;;;;;5000406;28;92248;-79
2022/01/09 03:50:37;;;;;;;8.50;2.70;;;;;;;;;;5004855;28;92381;-79
2022/01/09 03:53:04;;;;;;;12.52;3.45;;;;;;;;;;4986905;28;93268;-79
2022/01/09 03:55:31;;;;;;;7.85;2.80;;;;;;;;;;4985402;28;92990;-80
2022/01/09 03:57:57;;;;;;;11.73;3.08;;;;;;;;;;4997172;28;91983;-79
2022/01/09 04:00:24;;;;;;;8.65;2.83;;;;;;;;;;5004224;28;93200;-79
2022/01/09 04:02:51;;;;;;;12.10;2.92;;;;;;;;;;4969847;28;93464;-79
2022/01/09 04:05:18;;;;;;;7.88;2.72;;;;;;;;;;4997732;28;94835;-80
2022/01/09 04:07:44;;;;;;;13.25;3.97;;;;;;;;;;4992625;28;95858;-80
2022/01/09 04:10:20;;;;;;;9.90;2.80;;;;;;;;;;4991912;28;92353;-79
2022/01/09 04:12:49;;;;;;;10.10;3.25;;;;;;;;;;5006267;28;92396;-79
2022/01/09 04:15:16;;;;;;;9.55;3.33;;;;;;;;;;4993944;28;92070;-79
2022/01/09 04:17:51;;;;;;;9.50;3.25;;;;;;;;;;5000150;28;93472;-79
2022/01/09 04:20:19;;;;;;;13.32;3.10;;;;;;;;;;4999677;28;92926;-79
2022/01/09 04:22:47;;;;;;;10.73;3.00;;;;;;;;;;5002084;28;92314;-78
2022/01/09 04:25:15;;;;;;;11.02;3.47;;;;;;;;;;4995084;28;93398;-78
2022/01/09 04:27:42;;;;;;;9.85;2.42;;;;;;;;;;4990603;28;92386;-79
2022/01/09 04:30:09;;;;;;;8.90;2.83;;;;;;;;;;4985495;28;97523;-79
2022/01/09 04:32:35;;;;;;;9.30;2.75;;;;;;;;;;4998278;28;92419;-79
2022/01/09 04:35:02;;;;;;;11.70;3.58;;;;;;;;;;4998647;28;92360;-79
2022/01/09 04:37:29;;;;;;;8.80;3.08;;;;;;;;;;4991646;28;92953;-78
2022/01/09 04:39:56;;;;;;;8.57;2.65;;;;;;;;;;4993087;28;92399;-78
2022/01/09 04:42:29;;;;;;;12.23;3.15;;;;;;;;;;5003528;28;91822;-80
2022/01/09 04:44:55;;;;;;;8.80;2.42;;;;;;;;;;4999820;28;92968;-81
2022/01/09 04:47:22;;;;;;;10.80;2.53;;;;;;;;;;5007919;28;94030;-82
2022/01/09 04:49:49;;;;;;;8.35;2.75;;;;;;;;;;4999590;28;92385;-81
2022/01/09 04:52:20;;;;;;;9.20;2.35;;;;;;;;;;4991098;28;94082;-81
2022/01/09 04:54:47;;;;;;;13.55;3.05;;;;;;;;;;5007057;28;94960;-81
2022/01/09 04:57:13;;;;;;;11.98;2.53;;;;;;;;;;5008510;28;94996;-81
2022/01/09 04:59:40;;;;;;;9.55;2.83;;;;;;;;;;5001986;28;92986;-81
2022/01/09 05:02:06;;;;;;;9.38;2.67;;;;;;;;;;4992259;28;92305;-81
2022/01/09 05:04:33;;;;;;;9.93;2.45;;;;;;;;;;5009847;28;92043;-80
2022/01/09 05:06:59;;;;;;;9.25;2.50;;;;;;;;;;5004291;28;92424;-80
2022/01/09 05:09:25;;;;;;;8.43;2.35;;;;;;;;;;4996664;28;92219;-80
2022/01/09 05:11:52;;;;;;;8.13;2.55;;;;;;;;;;4999714;28;91911;-79
2022/01/09 05:14:18;;;;;;;9.52;3.13;;;;;;;;;;5005919;28;93345;-80
2022/01/09 05:16:45;;;;;;;9.55;2.72;;;;;;;;;;4999419;28;92417;-80
2022/01/09 05:19:20;;;;;;;8.80;2.53;;;;;;;;;;5004799;28;94718;-80
2022/01/09 05:21:47;;;;;;;8.93;3.05;;;;;;;;;;4993903;28;95283;-80
2022/01/09 05:24:15;;;;;;;8.85;2.35;;;;;;;;;;4999587;28;92155;-80
2022/01/09 05:26:42;;;;;;;8.70;2.58;;;;;;;;;;4982279;28;92370;-80
2022/01/09 05:29:08;;;;;;;9.77;2.60;;;;;;;;;;4987476;28;92460;-80
2022/01/09 05:31:35;;;;;;;8.80;2.58;;;;;;;;;;4995025;28;92542;-80
2022/01/09 05:34:01;;;;;;;9.77;2.65;;;;;;;;;;4981409;28;92987;-79
2022/01/09 05:36:28;;;;;;;10.10;2.55;;;;;;;;;;4995209;28;93372;-80
2022/01/09 05:38:54;;;;;;;12.18;2.83;;;;;;;;;;4995381;28;92642;-79
2022/01/09 05:41:21;;;;;;;7.53;2.35;;;;;;;;;;4997084;28;92414;-79
2022/01/09 05:43:47;;;;;;;7.35;2.28;;;;;;;;;;4999563;28;95455;-79
2022/01/09 05:46:14;;;;;;;7.32;2.40;;;;;;;;;;4998767;28;92209;-79
2022/01/09 05:48:40;;;;;;;11.18;2.38;;;;;;;;;;4992493;28;92385;-79
2022/01/09 05:51:07;;;;;;;8.27;2.50;;;;;;;;;;5006373;28;91932;-79
2022/01/09 05:53:33;;;;;;;9.50;2.95;;;;;;;;;;5006165;28;92389;-79
2022/01/09 05:56:00;;;;;;;11.55;2.53;;;;;;;;;;5005675;28;93019;-79
2022/01/09 05:58:26;;;;;;;9.23;2.65;;;;;;;;;;5004669;28;92382;-80
2022/01/09 06:00:53;;;;;;;12.90;2.83;;;;;;;;;;4995082;28;91808;-80
2022/01/09 06:03:19;;;;;;;10.50;2.75;;;;;;;;;;5003330;28;92271;-80
2022/01/09 06:05:46;;;;;;;5.60;2.10;;;;;;;;;;5000275;28;92263;-80
2022/01/09 06:08:12;;;;;;;11.35;2.42;;;;;;;;;;4992679;28;94334;-80
2022/01/09 06:10:39;;;;;;;5.53;1.92;;;;;;;;;;4996667;28;92433;-80
2022/01/09 06:13:05;;;;;;;11.60;3.03;;;;;;;;;;4999027;28;92909;-79
2022/01/09 06:15:32;;;;;;;5.38;1.98;;;;;;;;;;4997504;28;93679;-79
2022/01/09 06:17:58;;;;;;;9.23;3.10;;;;;;;;;;4990469;28;92941;-79
2022/01/09 06:20:25;;;;;;;7.28;2.40;;;;;;;;;;4983772;28;92376;-79
2022/01/09 06:22:51;;;;;;;6.20;2.10;;;;;;;;;;4983569;28;93950;-80
2022/01/09 06:25:18;;;;;;;7.40;2.05;;;;;;;;;;4983147;28;91444;-80
2022/01/09 06:27:44;;;;;;;9.27;2.90;;;;;;;;;;4996587;28;92220;-79
2022/01/09 06:30:11;;;;;;;8.68;2.33;;;;;;;;;;4997847;28;92555;-80
2022/01/09 06:32:37;;;;;;;12.57;2.92;;;;;;;;;;4985859;28;94782;-79
2022/01/09 06:35:05;;;;;;;7.03;2.08;;;;;;;;;;4995358;28;93968;-79
2022/01/09 06:37:32;;;;;;;7.70;2.03;;;;;;;;;;4991885;28;95183;-79
2022/01/09 06:39:58;;;;;;;4.07;1.95;;;;;;;;;;4999631;28;92262;-79
2022/01/09 06:42:25;;;;;;;6.82;2.85;;;;;;;;;;5001628;28;92375;-79
2022/01/09 06:44:52;;;;;;;6.13;2.20;;;;;;;;;;4998748;28;94027;-79
2022/01/09 06:47:18;;;;;;;9.23;2.00;;;;;;;;;;4998973;28;92242;-79
2022/01/09 06:49:45;;;;;;;5.65;2.10;;;;;;;;;;4992048;28;92132;-79
2022/01/09 06:52:11;;;;;;;6.72;1.92;;;;;;;;;;4999245;28;92465;-79
2022/01/09 06:54:37;;;;;;;7.35;2.30;;;;;;;;;;5000163;28;93913;-79
2022/01/09 06:57:05;;;;;;;7.30;2.20;;;;;;;;;;4984074;28;94702;-79
2022/01/09 06:59:31;;;;;;;9.52;2.28;;;;;;;;;;4996740;28;96096;-79
2022/01/09 07:01:58;;;;;;;8.55;2.00;;;;;;;;;;4985180;28;95727;-79
2022/01/09 07:04:24;;;;;;;6.68;1.90;;;;;;;;;;5001810;28;92929;-79
2022/01/09 07:06:51;;;;;;;5.72;1.90;;;;;;;;;;4984549;28;92358;-79
2022/01/09 07:09:17;;;;;;;8.43;2.17;;;;;;;;;;4986747;28;92308;-79
2022/01/09 07:11:43;;;;;;;6.78;1.98;;;;;;;;;;4986821;28;92494;-79
2022/01/09 07:14:10;;;;;;;4.38;1.80;;;;;;;;;;5002628;28;92139;-79
2022/01/09 07:16:36;;;;;;;10.68;2.92;;;;;;;;;;5001632;28;92962;-79
2022/01/09 07:19:06;;;;;;;5.28;2.15;;;;;;;;;;4984553;28;92345;-79
2022/01/09 07:21:32;;;;;;;7.30;2.08;;;;;;;;;;4989658;28;94799;-79
2022/01/09 07:23:59;;;;;;;5.63;1.75;;;;;;;;;;5003016;28;92434;-79
2022/01/09 07:26:29;;;;;;;11.20;2.75;;;;;;;;;;4996250;28;92861;-79
2022/01/09 07:28:55;;;;;;;5.32;1.88;;;;;;;;;;5002642;28;92254;-79
2022/01/09 07:31:22;;;;;;;6.32;1.85;;;;;;;;;;5002115;28;94493;-79
2022/01/09 07:33:48;;;;;;;7.00;2.30;;;;;;;;;;5008162;28;92113;-79
2022/01/09 07:36:16;;;;;;;8.55;2.05;;;;;;;;;;4983261;28;96202;-79
2022/01/09 07:38:42;;;;;;;5.70;1.70;;;;;;;;;;4994342;28;94678;-79
2022/01/09 07:41:12;;;;;;;6.13;1.70;;;;;;;;;;4998802;28;92138;-79
2022/01/09 07:43:39;;;;;;;6.05;1.67;;;;;;;;;;4978357;28;93360;-85
2022/01/09 07:46:06;;;;;;;8.18;2.15;;;;;;;;;;4975883;28;94686;-85
2022/01/09 07:48:34;;;;;;;8.10;2.38;;;;;;;;;;4995520;28;93072;-85
2022/01/09 07:51:00;;;;;;;4.28;1.50;;;;;;;;;;4992519;28;94881;-85
2022/01/09 07:53:26;;;;;;;7.53;2.33;;;;;;;;;;4982774;28;92382;-84
2022/01/09 07:55:53;;;;;;;5.93;1.63;;;;;;;;;;4987952;28;92167;-84
2022/01/09 07:58:19;;;;;;;4.95;2.25;;;;;;;;;;4977908;28;92433;-84
2022/01/09 08:00:46;;;;;;;13.80;2.40;;;;;;;;;;4989928;28;92385;-84
2022/01/09 08:03:13;;;;;;;15.73;2.35;;;;;;;;;;4988669;28;92932;-83
2022/01/09 08:05:40;;;;;;;7.32;2.08;;;;;;;;;;4995784;28;92344;-84
2022/01/09 08:08:07;;;;;;;8.45;2.33;;;;;;;;;;4994950;28;92206;-84
2022/01/09 08:10:34;;;;;;;5.80;1.95;;;;;;;;;;4997411;28;94731;-84
2022/01/09 08:13:01;;;;;;;5.75;1.88;;;;;;;;;;4992383;28;94252;-83
2022/01/09 08:15:27;;;;;;;4.32;1.60;;;;;;;;;;4988478;28;93682;-83
2022/01/09 08:17:54;;;;;;;8.82;1.98;;;;;;;;;;4995842;28;92374;-82
2022/01/09 08:20:21;;;;;;;7.63;1.60;;;;;;;;;;5006033;28;92454;-82
2022/01/09 08:22:47;;;;;;;7.07;1.70;;;;;;;;;;4989454;28;92930;-83
2022/01/09 08:25:15;;;;;;;16.58;2.40;;;;;;;;;;4989212;28;92080;-84
2022/01/09 08:27:44;;;;;;;5.65;2.20;;;;;;;;;;4990185;28;93749;-83
2022/01/09 08:30:11;;;;;;;5.13;2.22;;;;;;;;;;4989925;28;92469;-79
2022/01/09 08:32:38;;;;;;;15.88;2.17;;;;;;;;;;4983912;28;92704;-79
2022/01/09 08:35:05;;;;;;;9.18;1.92;;;;;;;;;;4993276;28;94862;-79
2022/01/09 08:37:32;;;;;;;10.93;2.10;;;;;;;;;;4980209;28;94326;-78
2022/01/09 08:39:58;;;;;;;5.38;2.08;;;;;;;;;;4984699;28;92361;-78
2022/01/09 08:42:25;;;;;;;7.30;1.90;;;;;;;;;;4981582;28;93546;-78
2022/01/09 08:44:51;;;;;;;6.22;1.60;;;;;;;;;;4984631;28;92257;-78
2022/01/09 08:47:18;;;;;;;5.95;1.60;;;;;;;;;;4984656;28;93123;-78
2022/01/09 08:49:44;;;;;;;9.23;2.08;;;;;;;;;;4980507;28;92442;-78
2022/01/09 08:52:11;;;;;;;9.35;2.30;;;;;;;;;;4978930;28;94104;-78
2022/01/09 08:54:37;;;;;;;11.95;1.92;;;;;;;;;;4988980;28;92298;-78
2022/01/09 08:57:05;;;;;;;4.95;2.20;;;;;;;;;;4982264;28;92329;-78
2022/01/09 08:59:31;;;;;;;8.38;1.77;;;;;;;;;;4987905;28;94890;-80
2022/01/09 09:01:58;;;;;;;12.20;3.60;;;;;;;;;;4980183;28;92462;-78
2022/01/09 09:04:24;;;;;;;14.63;2.78;;;;;;;;;;4998571;28;93505;-79
2022/01/09 09:06:51;;;;;;;8.95;2.65;;;;;;;;;;4993904;28;94016;-78
2022/01/09 09:09:19;;;;;;;6.20;2.40;;;;;;;;;;4989588;28;92795;-78
2022/01/09 09:11:45;;;;;;;13.88;2.55;;;;;;;;;;4983051;28;92375;-78
2022/01/09 09:14:11;;;;;;;7.20;2.28;;;;;;;;;;4983853;28;92419;-77
2022/01/09 09:16:38;;;;;;;18.60;2.38;;;;;;;;;;4984734;28;92132;-77
2022/01/09 09:19:04;;;;;;;5.78;2.03;;;;;;;;;;4982452;28;92432;-77
2022/01/09 09:21:31;;;;;;;2.22;1.77;;;;;;;;;;4978038;28;93218;-77
2022/01/09 09:23:57;;;;;;;5.18;1.83;;;;;;;;;;4984835;28;94848;-78
2022/01/09 09:26:24;;;;;;;6.15;2.10;;;;;;;;;;4990314;28;93696;-78
2022/01/09 09:28:50;;;;;;;13.40;2.45;;;;;;;;;;4973211;28;92861;-78
2022/01/09 09:31:17;;;;;;;4.57;1.70;;;;;;;;;;4985676;28;92387;-78
2022/01/09 09:33:43;;;;;;;8.73;1.63;;;;;;;;;;4980948;28;93101;-78
2022/01/09 09:36:10;;;;;;;8.15;1.95;;;;;;;;;;4985286;28;92981;-78
2022/01/09 09:38:37;;;;;;;11.43;2.70;;;;;;;;;;4979566;28;92526;-77
2022/01/09 09:41:03;;;;;;;9.40;2.25;;;;;;;;;;4984898;28;92169;-78
2022/01/09 09:43:29;;;;;;;7.28;2.00;;;;;;;;;;4982144;28;92943;-78
2022/01/09 09:45:56;;;;;;;7.07;2.17;;;;;;;;;;4982458;28;93189;-77
2022/01/09 09:48:22;;;;;;;4.30;1.73;;;;;;;;;;4971396;28;94760;-77
2022/01/09 09:50:49;;;;;;;3.67;1.83;;;;;;;;;;4983753;28;96717;-77
2022/01/09 09:53:15;;;;;;;4.15;1.52;;;;;;;;;;4973034;28;92424;-77
2022/01/09 09:55:44;;;;;;;6.30;2.00;;;;;;;;;;4983765;28;96629;-78
2022/01/09 09:58:11;;;;;;;5.75;1.63;;;;;;;;;;4984363;28;92769;-77
2022/01/09 10:00:39;;;;;;;4.93;1.90;;;;;;;;;;4988303;28;92062;-77
2022/01/09 10:03:07;;;;;;;5.47;1.55;;;;;;;;;;4986941;28;92476;-77
2022/01/09 10:05:35;;;;;;;7.55;2.15;;;;;;;;;;4983086;28;95430;-77
2022/01/09 10:08:09;;;;;;;3.50;1.70;;;;;;;;;;4995690;28;92355;-77
2022/01/09 10:10:36;;;;;;;8.15;1.52;;;;;;;;;;4996216;28;92319;-77
2022/01/09 10:13:07;;;;;;;4.53;1.90;;;;;;;;;;4995259;28;95653;-77
2022/01/09 10:15:42;;;;;;;5.32;1.92;;;;;;;;;;4994167;28;92468;-77
2022/01/09 10:18:09;;;;;;;4.57;1.70;;;;;;;;;;4975633;28;93090;-77
2022/01/09 10:20:35;;;;;;;4.72;1.40;;;;;;;;;;4990476;28;93218;-77
2022/01/09 10:23:02;;;;;;;6.35;1.85;;;;;;;;;;4975815;28;92313;-77
2022/01/09 10:25:30;;;;;;;4.03;1.65;;;;;;;;;;4988918;28;92809;-77
2022/01/09 10:27:57;;;;;;;6.47;1.60;;;;;;;;;;4987198;28;92360;-77
2022/01/09 10:30:26;;;;;;;4.97;1.80;;;;;;;;;;4988948;28;92323;-77
2022/01/09 10:32:53;;;;;;;4.68;1.65;;;;;;;;;;4985697;28;92377;-77
2022/01/09 10:35:20;;;;;;;4.68;2.05;;;;;;;;;;4980673;28;93913;-77
2022/01/09 10:37:48;;;;;;;7.85;2.20;;;;;;;;;;4976786;28;94814;-77
2022/01/09 10:40:19;;;;;;;9.07;2.40;;;;;;;;;;4995734;28;93526;-77
2022/01/09 10:42:59;;;;;;;4.93;2.42;;;;;;;;;;4978416;28;94671;-78
2022/01/09 10:45:25;;;;;;;4.70;2.30;;;;;;;;;;4994779;28;93089;-77
2022/01/09 10:47:55;;;;;;;3.45;1.98;;;;;;;;;;4988538;28;92461;-77
2022/01/09 10:50:23;;;;;;;9.35;2.45;;;;;;;;;;4993331;28;93233;-77
2022/01/09 10:52:50;;;;;;;6.18;2.05;;;;;;;;;;4996652;28;92993;-77
2022/01/09 10:55:16;;;;;;;6.65;2.15;;;;;;;;;;4994789;28;91931;-77
2022/01/09 10:57:44;;;;;;;4.78;2.20;;;;;;;;;;4995684;28;92359;-77
2022/01/09 11:00:15;;;;;;;6.55;2.53;;;;;;;;;;4983399;28;92155;-77
2022/01/09 11:02:41;;;;;;;6.07;1.87;;;;;;;;;;4983622;28;95382;-78
2022/01/09 11:05:08;;;;;;;5.88;2.00;;;;;;;;;;4994893;28;96376;-77
2022/01/09 11:07:35;;;;;;;9.73;2.80;;;;;;;;;;4994185;28;93992;-77
2022/01/09 11:10:03;;;;;;;6.32;2.00;;;;;;;;;;4982663;28;92396;-78
2022/01/09 11:12:35;;;;;;;5.60;2.28;;;;;;;;;;4991761;28;92377;-77
2022/01/09 11:15:03;;;;;;;5.22;1.98;;;;;;;;;;4988364;28;92937;-77
2022/01/09 11:17:29;;;;;;;4.63;1.85;;;;;;;;;;4981172;28;92829;-78
2022/01/09 11:19:57;;;;;;;5.50;2.38;;;;;;;;;;4995919;28;92091;-78
2022/01/09 11:22:23;;;;;;;5.70;2.08;;;;;;;;;;4991083;28;92195;-77
2022/01/09 11:25:09;;;;;;;7.25;2.33;;;;;;;;;;4984732;28;92027;-77
2022/01/09 11:27:44;;;;;;;5.18;2.03;;;;;;;;;;4984189;28;95506;-77
2022/01/09 11:30:25;;;;;;;3.38;2.10;;;;;;;;;;4989506;28;92727;-77
2022/01/09 11:33:15;;;;;;;3.17;1.75;;;;;;;;;;4975709;28;92390;-77
2022/01/09 11:35:48;;;;;;;3.45;1.75;;;;;;;;;;4980857;28;93264;-77
2022/01/09 11:38:47;;;;;;;5.97;2.00;;;;;;;;;;4975706;28;92825;-77
2022/01/09 11:41:21;;;;;;;3.88;2.05;;;;;;;;;;4965295;28;92484;-78
2022/01/09 11:43:56;;;;;;;4.88;2.30;;;;;;;;;;4981064;28;93011;-77
2022/01/09 11:46:24;;;;;;;6.15;2.05;;;;;;;;;;4995585;28;94620;-77
2022/01/09 11:48:51;;;;;;;4.22;1.80;;;;;;;;;;4995090;28;92305;-78
2022/01/09 11:51:21;;;;;;;4.47;1.80;;;;;;;;;;4987063;28;92272;-77
2022/01/09 11:53:56;;;;;;;4.30;1.77;;;;;;;;;;4986360;28;94850;-77
2022/01/09 11:56:41;;;;;;;5.53;1.73;;;;;;;;;;4986464;28;92401;-77
2022/01/09 11:59:17;;;;;;;3.15;1.20;;;;;;;;;;4993511;28;95146;-77
2022/01/09 12:01:45;;;;;;;3.75;2.50;;;;;;;;;;4981091;28;92283;-78
2022/01/09 12:04:30;;;;;;;4.40;1.77;;;;;;;;;;4991861;28;92436;-78
2022/01/09 12:07:00;;;;;;;3.08;1.52;;;;;;;;;;4974881;28;92313;-78
2022/01/09 12:09:33;;;;;;;3.88;1.40;;;;;;;;;;4980847;28;94631;-78
2022/01/09 12:12:16;;;;;;;4.55;2.15;;;;;;;;;;4995774;28;92068;-78
2022/01/09 12:14:44;;;;;;;1.80;1.17;;;;;;;;;;4982614;28;92554;-78
2022/01/09 12:20:01;;;;;;;5.60;1.60;;;;;;;;;;4993974;28;94852;-78
2022/01/09 12:22:46;;;;;;;7.95;1.50;;;;;;;;;;4985467;28;92983;-78
2022/01/09 12:25:21;;;;;;;7.93;1.65;;;;;;;;;;4979208;28;92423;-78
2022/01/09 12:27:56;;;;;;;5.50;1.50;;;;;;;;;;4976735;28;92370;-79
2022/01/09 12:30:41;;;;;;;7.72;1.77;;;;;;;;;;4993916;28;92341;-78
2022/01/09 12:33:11;;;;;;;11.55;1.50;;;;;;;;;;4977275;28;92455;-78
2022/01/09 12:35:45;;;;;;;10.88;2.25;;;;;;;;;;4988750;28;92766;-78
2022/01/09 12:38:17;;;;;;;7.45;2.15;;;;;;;;;;4987801;28;91994;-81
2022/01/09 12:40:44;;;;;;;10.60;1.38;;;;;;;;;;4994880;28;93027;-78
2022/01/09 12:43:12;;;;;;;9.52;1.75;;;;;;;;;;4980615;28;92147;-80
2022/01/09 12:45:41;;;;;;;17.67;2.25;;;;;;;;;;4987938;28;94821;-78
2022/01/09 12:48:07;;;;;;;12.38;1.83;;;;;;;;;;4981935;28;95315;-78
2022/01/09 12:50:35;;;;;;;3.45;1.40;;;;;;;;;;4982462;28;92446;-78
2022/01/09 12:53:15;;;;;;;4.22;1.25;;;;;;;;;;4992456;28;92731;-78
2022/01/09 12:56:01;;;;;;;9.65;2.78;;;;;;;;;;4996401;28;92354;-78
2022/01/09 12:58:35;;;;;;;14.55;3.25;;;;;;;;;;4974472;28;94180;-78
2022/01/09 13:01:03;;;;;;;13.68;3.63;;;;;;;;;;4977741;28;92370;-77
2022/01/09 13:03:31;;;;;;;13.98;3.22;;;;;;;;;;4974481;28;92063;-78
2022/01/09 13:05:58;;;;;;;19.90;2.95;;;;;;;;;;4990557;28;92529;-79
2022/01/09 13:08:25;;;;;;;17.50;2.95;;;;;;;;;;4983513;28;92578;-77
2022/01/09 13:10:59;;;;;;;19.23;3.25;;;;;;;;;;4983182;28;95257;-80
2022/01/09 13:13:26;;;;;;;9.05;2.53;;;;;;;;;;4993434;28;92616;-78
2022/01/09 13:15:54;;;;;;;5.82;2.22;;;;;;;;;;4979716;28;93252;-77
2022/01/09 13:18:33;;;;;;;11.90;2.70;;;;;;;;;;4992769;28;93026;-77
2022/01/09 13:21:10;;;;;;;13.50;2.00;;;;;;;;;;4980771;28;93186;-77
2022/01/09 13:23:55;;;;;;;10.02;3.25;;;;;;;;;;4988198;28;95400;-77
2022/01/09 13:26:23;;;;;;;8.85;2.08;;;;;;;;;;4983392;28;92622;-77
2022/01/09 13:28:50;;;;;;;10.57;2.10;;;;;;;;;;4977532;28;92148;-77
2022/01/09 13:31:16;;;;;;;10.15;2.10;;;;;;;;;;4983901;28;92499;-77
2022/01/09 13:33:57;;;;;;;5.30;1.63;;;;;;;;;;4989973;28;94234;-77
2022/01/09 13:36:28;;;;;;;10.30;2.77;;;;;;;;;;4994863;28;95814;-77
2022/01/09 13:38:55;;;;;;;7.70;1.97;;;;;;;;;;4991793;28;93908;-77
2022/01/09 13:41:22;;;;;;;8.30;1.92;;;;;;;;;;4981148;28;92922;-77
2022/01/09 13:43:51;;;;;;;11.60;1.60;;;;;;;;;;4968613;28;94543;-78
2022/01/09 13:46:18;;;;;;;6.07;1.67;;;;;;;;;;4977188;28;92884;-77
2022/01/09 13:48:45;;;;;;;13.70;2.25;;;;;;;;;;4992583;28;93223;-78
2022/01/09 13:51:12;;;;;;;20.65;3.55;;;;;;;;;;4989530;28;95306;-78
2022/01/09 13:53:38;;;;;;;5.63;1.67;;;;;;;;;;4981610;28;92238;-78
2022/01/09 13:56:05;;;;;;;19.25;2.35;;;;;;;;;;4984099;28;92512;-78
2022/01/09 13:58:32;;;;;;;6.50;1.83;;;;;;;;;;4990485;28;92441;-78
2022/01/09 14:00:58;;;;;;;5.68;1.33;;;;;;;;;;4983892;28;94745;-78
2022/01/09 14:03:26;;;;;;;18.63;1.92;;;;;;;;;;4995705;28;94328;-78
2022/01/09 14:05:53;;;;;;;10.35;2.42;;;;;;;;;;4983657;28;94268;-77
2022/01/09 14:08:21;;;;;;;12.68;2.55;;;;;;;;;;4980421;28;95144;-78
2022/01/09 14:10:50;;;;;;;7.80;1.52;;;;;;;;;;4993623;28;92404;-78
2022/01/09 14:13:16;;;;;;;8.82;1.92;;;;;;;;;;4983971;28;92265;-77
2022/01/09 14:15:43;;;;;;;23.75;3.10;;;;;;;;;;4976388;28;92263;-78
2022/01/09 14:18:25;;;;;;;14.45;2.70;;;;;;;;;;4979041;28;91952;-77
2022/01/09 14:21:00;;;;;;;13.25;2.03;;;;;;;;;;4977386;28;92077;-78
2022/01/09 14:23:30;;;;;;;12.65;2.63;;;;;;;;;;4984127;28;92142;-77
2022/01/09 14:26:03;;;;;;;8.50;1.63;;;;;;;;;;4992112;28;94787;-77
2022/01/09 14:28:30;;;;;;;6.68;2.47;;;;;;;;;;4979405;28;93160;-78
2022/01/09 14:31:02;;;;;;;16.45;2.25;;;;;;;;;;4987441;28;92665;-77
2022/01/09 14:33:29;;;;;;;5.68;2.53;;;;;;;;;;4990253;28;92805;-77
2022/01/09 14:36:09;;;;;;;7.72;1.98;;;;;;;;;;4987166;28;92487;-77
2022/01/09 14:38:38;;;;;;;11.88;2.22;;;;;;;;;;4984451;28;92772;-78
2022/01/09 14:41:05;;;;;;;5.90;1.85;;;;;;;;;;4988990;28;92448;-78
2022/01/09 14:43:33;;;;;;;8.90;2.30;;;;;;;;;;4996914;28;91905;-78
2022/01/09 14:46:00;;;;;;;9.18;1.80;;;;;;;;;;4994802;28;94606;-77
2022/01/09 14:48:31;;;;;;;9.70;2.17;;;;;;;;;;4995519;28;92349;-78
2022/01/09 14:50:58;;;;;;;13.60;2.33;;;;;;;;;;4994206;28;94795;-77